createdAt,value
2018-09-10T00:01:28.745Z,4.93
2018-09-10T00:04:00.817Z,4.13
2018-09-10T00:06:32.812Z,5.53
2018-09-10T00:09:07.070Z,5.90
2018-09-10T00:11:39.077Z,6.53
2018-09-10T00:14:11.198Z,7.07
2018-09-10T00:16:43.299Z,9.00
2018-09-10T00:19:15.309Z,5.63
2018-09-10T00:21:47.310Z,5.00
2018-09-10T00:24:19.339Z,7.23
2018-09-10T00:26:51.370Z,7.70
2018-09-10T00:29:23.413Z,8.23
2018-09-10T00:31:55.473Z,12.43
2018-09-10T00:34:27.482Z,8.07
2018-09-10T00:36:59.490Z,11.00
2018-09-10T00:39:31.878Z,5.10
2018-09-10T00:42:03.937Z,5.47
2018-09-10T00:44:35.962Z,6.57
2018-09-10T00:47:07.989Z,4.57
2018-09-10T00:49:40.069Z,8.20
2018-09-10T00:52:12.169Z,9.17
2018-09-10T00:54:44.265Z,7.73
2018-09-10T00:57:16.261Z,5.43
2018-09-10T00:59:48.358Z,7.17
2018-09-10T01:02:20.686Z,5.80
2018-09-10T01:04:52.690Z,4.47
2018-09-10T01:07:24.710Z,8.90
2018-09-10T01:09:56.721Z,7.87
2018-09-10T01:12:28.746Z,8.10
2018-09-10T01:15:00.747Z,4.27
2018-09-10T01:17:32.776Z,5.13
2018-09-10T01:20:04.810Z,6.53
2018-09-10T01:22:36.933Z,4.73
2018-09-10T01:25:08.998Z,4.37
2018-09-10T01:27:41.137Z,7.30
2018-09-10T01:30:13.178Z,5.90
2018-09-10T01:32:45.244Z,7.13
2018-09-10T01:35:17.290Z,8.00
2018-09-10T01:37:49.338Z,11.20
2018-09-10T01:40:21.397Z,9.20
2018-09-10T01:42:53.526Z,5.40
2018-09-10T01:45:25.558Z,5.33
2018-09-10T01:47:57.610Z,5.10
2018-09-10T01:50:29.642Z,9.27
2018-09-10T01:53:01.694Z,5.93
2018-09-10T01:55:33.714Z,5.13
2018-09-10T01:58:05.764Z,3.87
2018-09-10T02:00:37.846Z,4.87
2018-09-10T02:03:09.988Z,8.00
2018-09-10T02:05:42.179Z,11.77
2018-09-10T02:08:14.220Z,6.77
2018-09-10T02:10:46.281Z,3.93
2018-09-10T02:13:18.346Z,5.97
2018-09-10T02:15:51.345Z,6.47
2018-09-10T02:18:23.374Z,4.43
2018-09-10T02:20:55.406Z,7.93
2018-09-10T02:23:27.486Z,7.97
2018-09-10T02:25:59.518Z,5.60
2018-09-10T02:28:32.591Z,7.17
2018-09-10T02:31:05.263Z,6.90
2018-09-10T02:33:37.290Z,4.20
2018-09-10T02:36:09.316Z,8.47
2018-09-10T02:38:41.435Z,5.93
2018-09-10T02:41:13.449Z,5.47
2018-09-10T02:43:45.470Z,6.23
2018-09-10T02:46:17.493Z,6.10
2018-09-10T02:48:49.537Z,4.73
2018-09-10T02:51:21.654Z,5.77
2018-09-10T02:53:53.685Z,6.13
2018-09-10T02:56:25.730Z,7.27
2018-09-10T02:58:57.925Z,3.80
2018-09-10T03:01:30.014Z,7.07
2018-09-10T03:04:02.127Z,5.30
2018-09-10T03:06:34.178Z,6.13
2018-09-10T03:09:07.175Z,5.00
2018-09-10T03:11:39.203Z,6.73
2018-09-10T03:14:11.262Z,7.07
2018-09-10T03:16:43.315Z,9.27
2018-09-10T03:19:15.350Z,9.37
2018-09-10T03:21:47.352Z,10.60
2018-09-10T03:24:19.435Z,6.63
2018-09-10T03:26:51.474Z,6.47
2018-09-10T03:29:23.555Z,10.33
2018-09-10T03:31:55.598Z,7.43
2018-09-10T03:34:27.618Z,9.27
2018-09-10T03:36:59.693Z,8.93
2018-09-10T03:39:31.710Z,10.70
2018-09-10T03:42:03.735Z,12.13
2018-09-10T03:44:35.760Z,7.77
2018-09-10T03:47:07.834Z,7.30
2018-09-10T03:49:39.854Z,9.83
2018-09-10T03:52:11.861Z,7.60
2018-09-10T03:54:43.883Z,8.37
2018-09-10T03:57:15.957Z,10.13
2018-09-10T03:59:48.004Z,14.50
2018-09-10T04:02:20.026Z,12.37
2018-09-10T04:04:52.585Z,5.87
2018-09-10T04:07:24.700Z,5.30
2018-09-10T04:09:56.761Z,8.17
2018-09-10T04:12:28.802Z,6.63
2018-09-10T04:15:00.859Z,8.00
2018-09-10T04:17:32.982Z,11.37
2018-09-10T04:20:10.956Z,13.17
2018-09-10T04:22:42.950Z,10.50
2018-09-10T04:25:14.964Z,12.93
2018-09-10T04:27:47.007Z,12.47
2018-09-10T04:30:19.031Z,12.50
2018-09-10T04:32:51.028Z,8.83
2018-09-10T04:35:23.060Z,8.73
2018-09-10T04:37:55.039Z,11.13
2018-09-10T04:40:27.106Z,18.47
2018-09-10T04:42:59.487Z,24.93
2018-09-10T04:45:31.570Z,19.90
2018-09-10T04:48:03.617Z,10.13
2018-09-10T04:50:35.657Z,13.43
2018-09-10T04:53:07.694Z,7.60
2018-09-10T04:55:39.787Z,12.00
2018-09-10T04:58:11.803Z,8.37
2018-09-10T05:00:43.851Z,7.87
2018-09-10T05:03:15.889Z,9.23
2018-09-10T05:05:47.954Z,8.33
2018-09-10T05:08:19.947Z,5.73
2018-09-10T05:10:52.053Z,10.03
2018-09-10T05:13:24.080Z,9.87
2018-09-10T05:15:56.116Z,17.07
2018-09-10T05:18:28.146Z,12.27
2018-09-10T05:21:00.157Z,11.97
2018-09-10T05:23:32.146Z,15.80
2018-09-10T05:26:04.151Z,8.57
2018-09-10T05:28:36.173Z,11.43
2018-09-10T05:31:08.195Z,19.00
2018-09-10T05:33:40.198Z,5.73
2018-09-10T05:36:12.241Z,9.47
2018-09-10T05:38:44.251Z,34.77
2018-09-10T05:41:16.264Z,33.23
2018-09-10T05:43:48.266Z,84.00
2018-09-10T05:46:20.289Z,21.53
2018-09-10T05:48:52.305Z,12.90
2018-09-10T05:51:24.390Z,240.93
2018-09-10T05:53:56.417Z,293.10
2018-09-10T05:56:28.486Z,416.73
2018-09-10T05:59:00.503Z,441.70
2018-09-10T06:01:32.495Z,332.70
2018-09-10T06:04:04.505Z,131.93
2018-09-10T06:06:36.571Z,62.80
2018-09-10T06:09:08.618Z,23.50
2018-09-10T06:11:40.637Z,124.40
2018-09-10T06:14:12.798Z,42.27
2018-09-10T06:16:44.853Z,31.97
2018-09-10T06:19:16.875Z,24.23
2018-09-10T06:21:48.915Z,17.67
2018-09-10T06:24:21.001Z,19.97
2018-09-10T06:26:53.044Z,15.93
2018-09-10T06:29:25.097Z,8.70
2018-09-10T06:31:57.061Z,21.37
2018-09-10T06:34:29.083Z,9.67
2018-09-10T06:37:01.140Z,13.43
2018-09-10T06:39:33.193Z,18.47
2018-09-10T06:42:05.263Z,36.73
2018-09-10T06:44:37.246Z,67.25
2018-09-10T06:47:09.310Z,47.98
2018-09-10T06:49:41.391Z,35.03
2018-09-10T06:52:13.456Z,35.68
2018-09-10T06:54:45.512Z,17.07
2018-09-10T06:57:17.554Z,14.23
2018-09-10T06:59:49.562Z,14.93
2018-09-10T07:02:21.596Z,8.53
2018-09-10T07:04:53.641Z,10.65
2018-09-10T07:07:25.713Z,12.40
2018-09-10T07:09:57.750Z,7.17
2018-09-10T07:12:29.791Z,7.17
2018-09-10T07:15:01.818Z,6.03
2018-09-10T07:17:33.918Z,8.23
2018-09-10T07:20:06.886Z,14.95
2018-09-10T07:22:38.918Z,6.85
2018-09-10T07:25:10.968Z,11.80
2018-09-10T07:27:42.978Z,8.18
2018-09-10T07:30:15.016Z,5.50
2018-09-10T07:32:47.075Z,8.40
2018-09-10T07:35:19.255Z,5.78
2018-09-10T07:37:51.275Z,6.92
2018-09-10T07:40:23.279Z,10.32
2018-09-10T07:42:55.322Z,6.67
2018-09-10T07:45:27.367Z,12.37
2018-09-10T07:47:59.425Z,6.35
2018-09-10T07:50:31.503Z,5.90
2018-09-10T07:53:03.532Z,7.55
2018-09-10T07:55:35.557Z,3.22
2018-09-10T07:58:07.639Z,6.60
2018-09-10T08:00:39.688Z,6.83
2018-09-10T08:03:11.682Z,5.97
2018-09-10T08:05:43.674Z,8.10
2018-09-10T08:08:15.682Z,8.33
2018-09-10T08:10:47.743Z,5.12
2018-09-10T08:13:19.822Z,5.58
2018-09-10T08:15:51.822Z,8.23
2018-09-10T08:18:23.909Z,11.70
2018-09-10T08:20:55.954Z,4.03
2018-09-10T08:23:28.018Z,7.40
2018-09-10T08:26:00.153Z,5.83
2018-09-10T08:28:32.170Z,5.17
2018-09-10T08:31:04.189Z,6.20
2018-09-10T08:33:36.218Z,3.83
2018-09-10T08:36:08.312Z,4.40
2018-09-10T08:38:40.505Z,11.65
2018-09-10T08:41:12.487Z,5.90
2018-09-10T08:43:44.583Z,7.85
2018-09-10T08:46:16.610Z,4.78
2018-09-10T08:48:48.659Z,11.20
2018-09-10T08:51:20.650Z,10.63
2018-09-10T08:53:52.742Z,9.13
2018-09-10T08:56:24.882Z,5.20
2018-09-10T08:58:56.882Z,4.47
2018-09-10T09:01:29.119Z,3.25
2018-09-10T09:04:01.134Z,8.73
2018-09-10T09:06:33.125Z,8.93
2018-09-10T09:09:06.577Z,5.35
2018-09-10T09:11:38.606Z,4.30
2018-09-10T09:14:10.649Z,7.60
2018-09-10T09:16:42.806Z,9.08
2018-09-10T09:19:14.809Z,4.78
2018-09-10T09:21:46.877Z,5.20
2018-09-10T09:24:18.927Z,6.53
2018-09-10T09:26:50.941Z,6.50
2018-09-10T09:29:23.046Z,6.37
2018-09-10T09:32:00.069Z,4.08
2018-09-10T09:34:38.037Z,16.32
2018-09-10T09:37:15.876Z,5.65
2018-09-10T09:39:53.745Z,3.50
2018-09-10T09:42:31.651Z,4.62
2018-09-10T09:45:09.512Z,4.92
2018-09-10T09:47:41.543Z,14.05
2018-09-10T09:50:13.534Z,4.65
2018-09-10T09:52:45.641Z,9.28
2018-09-10T09:55:17.667Z,6.08
2018-09-10T09:57:49.686Z,6.50
2018-09-10T10:01:00.476Z,3.33
2018-09-10T10:03:38.284Z,6.12
2018-09-10T10:06:10.310Z,7.25
2018-09-10T10:08:42.334Z,9.08
2018-09-10T10:11:14.383Z,15.25
2018-09-10T10:13:46.393Z,7.10
2018-09-10T10:16:18.474Z,5.17
2018-09-10T10:18:50.447Z,2.52
2018-09-10T10:21:22.490Z,5.10
2018-09-10T10:23:54.517Z,5.65
2018-09-10T10:26:26.583Z,3.72
2018-09-10T10:28:58.651Z,7.87
2018-09-10T10:31:30.729Z,6.37
2018-09-10T10:34:02.762Z,2.90
2018-09-10T10:36:35.061Z,7.67
2018-09-10T10:39:07.669Z,3.05
2018-09-10T10:41:39.732Z,12.35
2018-09-10T10:44:11.815Z,6.35
2018-09-10T10:46:43.850Z,9.75
2018-09-10T10:49:15.990Z,3.15
2018-09-10T10:51:48.034Z,4.60
2018-09-10T10:54:20.083Z,3.80
2018-09-10T10:56:52.136Z,5.83
2018-09-10T10:59:24.178Z,5.22
2018-09-10T11:01:56.233Z,9.85
2018-09-10T11:04:28.284Z,9.10
2018-09-10T11:07:00.382Z,2.70
2018-09-10T11:09:32.436Z,4.25
2018-09-10T11:12:04.527Z,4.37
2018-09-10T11:14:36.581Z,6.70
2018-09-10T11:17:08.684Z,4.85
2018-09-10T11:19:40.695Z,2.45
2018-09-10T11:22:12.723Z,5.87
2018-09-10T11:24:44.866Z,7.67
2018-09-10T11:27:17.016Z,5.53
2018-09-10T11:29:49.132Z,4.42
2018-09-10T11:32:21.187Z,8.70
2018-09-10T11:34:53.252Z,5.50
2018-09-10T11:37:25.357Z,4.12
2018-09-10T11:39:57.451Z,5.80
2018-09-10T11:42:29.568Z,3.85
2018-09-10T11:45:01.616Z,3.80
2018-09-10T11:47:33.734Z,3.67
2018-09-10T11:50:05.846Z,7.08
2018-09-10T11:52:37.971Z,5.22
2018-09-10T11:55:09.968Z,4.12
2018-09-10T11:57:42.057Z,4.62
2018-09-10T12:00:14.132Z,1.82
2018-09-10T12:02:46.220Z,4.03
2018-09-10T12:05:18.287Z,6.85
2018-09-10T12:07:50.334Z,8.13
2018-09-10T12:10:22.362Z,9.98
2018-09-10T12:12:54.381Z,8.78
2018-09-10T12:15:26.570Z,4.87
2018-09-10T12:17:58.568Z,4.33
2018-09-10T12:20:30.597Z,6.35
2018-09-10T12:23:02.658Z,2.72
2018-09-10T12:25:34.706Z,9.40
2018-09-10T12:28:06.726Z,4.25
2018-09-10T12:30:38.759Z,10.95
2018-09-10T12:33:10.765Z,2.90
2018-09-10T12:35:42.852Z,5.33
2018-09-10T12:38:14.868Z,7.28
2018-09-10T12:40:46.897Z,4.83
2018-09-10T12:43:18.882Z,2.85
2018-09-10T12:45:51.051Z,7.42
2018-09-10T12:48:23.156Z,14.60
2018-09-10T12:50:55.228Z,5.42
2018-09-10T12:53:27.323Z,6.78
2018-09-10T12:55:59.429Z,5.85
2018-09-10T12:58:31.536Z,5.78
2018-09-10T13:01:03.598Z,4.00
2018-09-10T13:03:35.646Z,3.65
2018-09-10T13:06:07.652Z,6.67
2018-09-10T13:08:40.353Z,7.62
2018-09-10T13:11:12.854Z,5.50
2018-09-10T13:13:44.879Z,4.35
2018-09-10T13:16:16.916Z,6.33
2018-09-10T13:18:48.947Z,4.55
2018-09-10T13:21:20.939Z,4.37
2018-09-10T13:23:52.954Z,6.60
2018-09-10T13:26:24.993Z,5.78
2018-09-10T13:28:57.032Z,14.58
2018-09-10T13:31:29.017Z,9.80
2018-09-10T13:34:01.261Z,6.80
2018-09-10T13:36:33.353Z,7.20
2018-09-10T13:39:06.092Z,10.35
2018-09-10T13:41:38.107Z,4.67
2018-09-10T13:44:10.177Z,3.33
2018-09-10T13:46:42.450Z,3.55
2018-09-10T13:49:14.603Z,6.97
2018-09-10T13:51:46.863Z,7.67
2018-09-10T13:54:18.934Z,5.53
2018-09-10T13:56:51.018Z,6.45
2018-09-10T13:59:23.105Z,7.75
2018-09-10T14:01:55.474Z,5.90
2018-09-10T14:04:27.702Z,6.53
2018-09-10T14:06:59.722Z,6.95
2018-09-10T14:09:31.792Z,6.92
2018-09-10T14:12:03.845Z,2.85
2018-09-10T14:14:35.924Z,6.12
2018-09-10T14:17:07.946Z,3.52
2018-09-10T14:19:39.984Z,8.33
2018-09-10T14:22:12.017Z,7.90
2018-09-10T14:24:44.120Z,2.22
2018-09-10T14:27:16.164Z,5.60
2018-09-10T14:29:48.181Z,7.83
2018-09-10T14:32:20.350Z,4.92
2018-09-10T14:34:52.409Z,9.10
2018-09-10T14:37:24.647Z,11.00
2018-09-10T14:39:56.641Z,5.28
2018-09-10T14:42:28.687Z,10.03
2018-09-10T14:45:00.779Z,9.65
2018-09-10T14:47:32.833Z,10.50
2018-09-10T14:50:04.931Z,5.12
2018-09-10T14:52:37.001Z,4.33
2018-09-10T14:55:09.019Z,14.63
2018-09-10T14:57:41.062Z,6.90
2018-09-10T15:00:19.067Z,3.65
2018-09-10T15:02:51.092Z,6.78
2018-09-10T15:05:23.115Z,13.18
2018-09-10T15:07:55.211Z,8.78
2018-09-10T15:10:27.282Z,6.97
2018-09-10T15:12:59.314Z,9.08
2018-09-10T15:15:31.378Z,5.10
2018-09-10T15:18:03.409Z,6.20
2018-09-10T15:20:35.455Z,10.13
2018-09-10T15:23:07.514Z,12.75
2018-09-10T15:25:39.526Z,11.53
2018-09-10T15:28:11.576Z,13.93
2018-09-10T15:30:43.558Z,14.63
2018-09-10T15:33:15.590Z,6.60
2018-09-10T15:35:47.703Z,15.48
2018-09-10T15:38:19.729Z,24.18
2018-09-10T15:40:51.794Z,12.30
2018-09-10T15:43:23.825Z,10.68
2018-09-10T15:45:55.906Z,6.17
2018-09-10T15:48:27.951Z,16.37
2018-09-10T15:50:59.964Z,13.20
2018-09-10T15:53:36.957Z,24.80
2018-09-10T15:56:09.000Z,18.37
2018-09-10T15:58:41.071Z,5.42
2018-09-10T16:01:13.169Z,4.03
2018-09-10T16:03:45.208Z,13.22
2018-09-10T16:06:17.193Z,10.80
2018-09-10T16:08:49.234Z,7.67
2018-09-10T16:11:21.238Z,7.87
2018-09-10T16:13:53.259Z,9.10
2018-09-10T16:16:25.238Z,13.53
2018-09-10T16:18:57.321Z,9.60
2018-09-10T16:21:29.343Z,5.12
2018-09-10T16:24:02.211Z,18.65
2018-09-10T16:26:34.276Z,9.33
2018-09-10T16:29:06.934Z,6.33
2018-09-10T16:31:39.039Z,39.85
2018-09-10T16:34:11.044Z,15.45
2018-09-10T16:36:43.158Z,10.55
2018-09-10T16:39:15.237Z,7.55
2018-09-10T16:41:47.390Z,8.45
2018-09-10T16:44:20.456Z,8.60
2018-09-10T16:46:52.522Z,10.28
2018-09-10T16:49:24.630Z,5.90
2018-09-10T16:51:56.873Z,12.70
2018-09-10T16:54:29.076Z,9.75
2018-09-10T16:57:01.239Z,7.90
2018-09-10T16:59:33.302Z,7.42
2018-09-10T17:02:05.551Z,12.53
2018-09-10T17:04:37.564Z,7.53
2018-09-10T17:07:09.613Z,4.65
2018-09-10T17:09:41.647Z,13.60
2018-09-10T17:12:13.776Z,8.20
2018-09-10T17:14:45.770Z,8.20
2018-09-10T17:17:17.795Z,9.00
2018-09-10T17:19:49.835Z,4.37
2018-09-10T17:22:21.889Z,6.00
2018-09-10T17:24:53.910Z,5.37
2018-09-10T17:27:25.947Z,11.33
2018-09-10T17:29:58.069Z,9.05
2018-09-10T17:32:30.174Z,9.95
2018-09-10T17:35:02.569Z,15.13
2018-09-10T17:37:34.600Z,18.27
2018-09-10T17:40:06.851Z,12.47
2018-09-10T17:42:38.897Z,8.23
2018-09-10T17:45:10.954Z,10.80
2018-09-10T17:47:43.015Z,9.40
2018-09-10T17:50:15.082Z,8.65
2018-09-10T17:52:47.236Z,10.10
2018-09-10T17:55:19.362Z,7.05
2018-09-10T17:57:51.486Z,7.33
2018-09-10T18:00:23.668Z,11.73
2018-09-10T18:02:55.841Z,15.53
2018-09-10T18:05:27.873Z,6.33
2018-09-10T18:07:59.937Z,6.47
2018-09-10T18:10:31.982Z,10.40
2018-09-10T18:13:04.592Z,3.83
2018-09-10T18:15:36.683Z,7.17
2018-09-10T18:18:08.874Z,7.83
2018-09-10T18:20:41.134Z,9.13
2018-09-10T18:23:13.166Z,5.63
2018-09-10T18:25:45.181Z,6.03
2018-09-10T18:28:17.360Z,9.57
2018-09-10T18:30:49.407Z,12.30
2018-09-10T18:33:21.678Z,14.17
2018-09-10T18:35:53.711Z,4.15
2018-09-10T18:38:25.740Z,11.07
2018-09-10T18:40:57.752Z,7.97
2018-09-10T18:43:29.821Z,12.97
2018-09-10T18:46:01.891Z,5.33
2018-09-10T18:48:33.941Z,8.80
2018-09-10T18:51:06.114Z,8.67
2018-09-10T18:53:38.119Z,7.93
2018-09-10T18:56:10.264Z,12.93
2018-09-10T18:58:42.275Z,19.60
2018-09-10T19:01:14.583Z,6.67
2018-09-10T19:03:46.574Z,11.73
2018-09-10T19:06:18.597Z,7.90
2018-09-10T19:08:50.791Z,9.90
2018-09-10T19:11:22.817Z,6.60
2018-09-10T19:13:54.845Z,8.90
2018-09-10T19:16:26.870Z,11.17
2018-09-10T19:18:58.899Z,10.50
2018-09-10T19:21:30.949Z,6.70
2018-09-10T19:24:02.942Z,12.17
2018-09-10T19:26:34.973Z,20.47
2018-09-10T19:29:07.029Z,11.07
2018-09-10T19:31:39.069Z,5.60
2018-09-10T19:34:11.272Z,22.13
2018-09-10T19:36:43.781Z,13.00
2018-09-10T19:39:15.917Z,11.30
2018-09-10T19:41:47.930Z,8.63
2018-09-10T19:44:19.944Z,6.67
2018-09-10T19:46:52.018Z,7.70
2018-09-10T19:49:24.027Z,9.30
2018-09-10T19:51:56.084Z,23.00
2018-09-10T19:54:28.187Z,21.83
2018-09-10T19:57:00.271Z,11.03
2018-09-10T19:59:32.480Z,21.20
2018-09-10T20:02:04.538Z,12.03
2018-09-10T20:04:36.586Z,11.23
2018-09-10T20:07:08.690Z,6.20
2018-09-10T20:09:40.758Z,4.87
2018-09-10T20:12:12.762Z,5.87
2018-09-10T20:14:44.819Z,8.77
2018-09-10T20:17:16.813Z,4.83
2018-09-10T20:19:48.854Z,11.13
2018-09-10T20:22:20.935Z,10.03
2018-09-10T20:24:52.976Z,7.97
2018-09-10T20:27:25.062Z,10.40
2018-09-10T20:29:57.047Z,6.10
2018-09-10T20:32:29.090Z,14.27
2018-09-10T20:35:01.129Z,15.97
2018-09-10T20:37:33.386Z,11.53
2018-09-10T20:40:05.414Z,7.33
2018-09-10T20:42:37.475Z,5.50
2018-09-10T20:45:09.498Z,9.63
2018-09-10T20:47:41.789Z,7.37
2018-09-10T20:50:13.826Z,6.93
2018-09-10T20:52:45.834Z,8.27
2018-09-10T20:55:17.830Z,5.93
2018-09-10T20:57:49.866Z,13.77
2018-09-10T21:00:21.885Z,9.87
2018-09-10T21:02:53.932Z,15.03
2018-09-10T21:05:25.993Z,5.90
2018-09-10T21:07:58.026Z,9.90
2018-09-10T21:10:30.054Z,8.37
2018-09-10T21:13:02.173Z,16.17
2018-09-10T21:15:34.214Z,8.63
2018-09-10T21:18:06.246Z,10.20
2018-09-10T21:20:38.230Z,10.10
2018-09-10T21:23:10.306Z,21.17
2018-09-10T21:25:42.329Z,9.30
2018-09-10T21:28:14.334Z,10.67
2018-09-10T21:30:47.062Z,15.03
2018-09-10T21:33:19.075Z,15.23
2018-09-10T21:35:51.228Z,8.83
2018-09-10T21:38:23.237Z,12.83
2018-09-10T21:40:55.274Z,5.83
2018-09-10T21:43:27.372Z,3.80
2018-09-10T21:45:59.374Z,6.30
2018-09-10T21:48:31.431Z,9.10
2018-09-10T21:51:03.489Z,5.80
2018-09-10T21:53:35.806Z,14.83
2018-09-10T21:56:07.839Z,9.30
2018-09-10T21:58:39.902Z,11.93
2018-09-10T22:01:11.945Z,17.77
2018-09-10T22:03:43.973Z,13.73
2018-09-10T22:06:16.012Z,12.30
2018-09-10T22:08:48.105Z,9.37
2018-09-10T22:11:20.168Z,6.37
2018-09-10T22:13:52.166Z,8.70
2018-09-10T22:16:24.195Z,7.07
2018-09-10T22:18:56.228Z,7.67
2018-09-10T22:21:28.245Z,4.67
2018-09-10T22:24:00.308Z,8.07
2018-09-10T22:26:32.321Z,6.47
2018-09-10T22:29:04.470Z,4.70
2018-09-10T22:31:36.607Z,7.50
2018-09-10T22:34:08.774Z,6.00
2018-09-10T22:36:40.775Z,7.37
2018-09-10T22:39:14.007Z,9.23
2018-09-10T22:41:45.998Z,12.60
2018-09-10T22:44:18.139Z,8.23
2018-09-10T22:46:50.065Z,9.80
2018-09-10T22:49:22.152Z,9.33
2018-09-10T22:51:54.265Z,6.50
2018-09-10T22:54:26.292Z,9.10
2018-09-10T22:56:58.288Z,10.57
2018-09-10T22:59:30.349Z,10.23
2018-09-10T23:02:02.370Z,9.93
2018-09-10T23:04:34.393Z,8.90
2018-09-10T23:07:06.372Z,9.00
2018-09-10T23:09:38.391Z,11.77
2018-09-10T23:12:10.365Z,11.00
2018-09-10T23:14:42.386Z,7.27
2018-09-10T23:17:14.413Z,9.03
2018-09-10T23:19:46.733Z,9.10
2018-09-10T23:22:18.735Z,11.87
2018-09-10T23:24:50.749Z,10.80
2018-09-10T23:27:22.805Z,10.43
2018-09-10T23:29:54.835Z,17.87
2018-09-10T23:32:26.844Z,7.20
2018-09-10T23:34:58.866Z,11.83
2018-09-10T23:37:30.851Z,11.00
2018-09-10T23:40:03.122Z,11.57
2018-09-10T23:42:35.142Z,7.73
2018-09-10T23:45:07.279Z,16.80
2018-09-10T23:47:39.286Z,8.77
2018-09-10T23:50:11.303Z,7.10
2018-09-10T23:52:43.498Z,12.27
2018-09-10T23:55:15.523Z,6.90
2018-09-10T23:57:47.610Z,9.73
